Auburn, Kentucky
Current Conditions -  °F | °C
As of 2:53 PM on Tuesday 27 Jan 2015 (Local Time) from KBWG Reporting Station
Overcast Overcast  
Wind Chill: -1°   Ceiling: 1500
Heat Index:   Visibility: 10mi
Dew Point: -1°   Wind: 6mph
Humidity: 82%   Direction: 310°NW
Pressure: 30.13"   Gusts: NA
Location:  36.86°N, 86.71°W
Report Text: KBWG 272053Z AUTO 31005KT 10SM BKN015 OVC020 02/M01 A3013 RMK AO2 SLP205 I3000 T00171011 53013
Loading
Personal Weather Stations






























Interactive Weather Map New forecast layout! Learn more

10-Day Weather Forecast

Advertisements
Track Severe Weather on mobile